sensor_id;sensor_type;location;lat;lon;timestamp;P1;durP1;ratioP1;P2;durP2;ratioP2
72273;SDS011;60208;48.692;8.948;2023-07-13T00:00:44;4.35;;;1.20;;
72273;SDS011;60208;48.692;8.948;2023-07-13T00:04:03;5.30;;;1.20;;
72273;SDS011;60208;48.692;8.948;2023-07-13T00:07:21;3.13;;;1.20;;
72273;SDS011;60208;48.692;8.948;2023-07-13T00:10:39;2.03;;;0.90;;
72273;SDS011;60208;48.692;8.948;2023-07-13T00:13:57;3.08;;;1.35;;
72273;SDS011;60208;48.692;8.948;2023-07-13T00:17:15;2.70;;;1.10;;
72273;SDS011;60208;48.692;8.948;2023-07-13T00:20:33;6.78;;;1.15;;
72273;SDS011;60208;48.692;8.948;2023-07-13T00:23:51;4.28;;;1.17;;
72273;SDS011;60208;48.692;8.948;2023-07-13T00:27:09;2.38;;;1.17;;
72273;SDS011;60208;48.692;8.948;2023-07-13T00:30:27;4.18;;;1.25;;
72273;SDS011;60208;48.692;8.948;2023-07-13T00:33:45;3.63;;;1.00;;
72273;SDS011;60208;48.692;8.948;2023-07-13T00:37:03;2.20;;;1.10;;
72273;SDS011;60208;48.692;8.948;2023-07-13T00:40:21;1.77;;;1.10;;
72273;SDS011;60208;48.692;8.948;2023-07-13T00:43:39;8.18;;;1.15;;
72273;SDS011;60208;48.692;8.948;2023-07-13T00:46:57;5.03;;;1.27;;
72273;SDS011;60208;48.692;8.948;2023-07-13T00:50:15;2.00;;;1.10;;
72273;SDS011;60208;48.692;8.948;2023-07-13T00:53:29;5.50;;;1.35;;
72273;SDS011;60208;48.692;8.948;2023-07-13T00:56:52;5.28;;;1.15;;
72273;SDS011;60208;48.692;8.948;2023-07-13T01:00:09;4.53;;;1.35;;
72273;SDS011;60208;48.692;8.948;2023-07-13T01:03:26;3.33;;;1.30;;
72273;SDS011;60208;48.692;8.948;2023-07-13T01:06:45;3.10;;;1.10;;
72273;SDS011;60208;48.692;8.948;2023-07-13T01:09:44;4.55;;;1.33;;
72273;SDS011;60208;48.692;8.948;2023-07-13T01:12:17;5.25;;;1.30;;
72273;SDS011;60208;48.692;8.948;2023-07-13T01:14:56;3.10;;;1.13;;
72273;SDS011;60208;48.692;8.948;2023-07-13T01:17:23;2.38;;;1.20;;
72273;SDS011;60208;48.692;8.948;2023-07-13T01:19:49;6.78;;;1.33;;
72273;SDS011;60208;48.692;8.948;2023-07-13T01:22:16;6.22;;;1.23;;
72273;SDS011;60208;48.692;8.948;2023-07-13T01:25:09;3.78;;;1.20;;
72273;SDS011;60208;48.692;8.948;2023-07-13T01:27:54;3.75;;;1.50;;
72273;SDS011;60208;48.692;8.948;2023-07-13T01:30:35;3.40;;;1.05;;
72273;SDS011;60208;48.692;8.948;2023-07-13T01:33:03;2.35;;;1.40;;
72273;SDS011;60208;48.692;8.948;2023-07-13T01:35:29;3.17;;;1.25;;
72273;SDS011;60208;48.692;8.948;2023-07-13T01:37:55;5.28;;;1.30;;
72273;SDS011;60208;48.692;8.948;2023-07-13T01:40:47;2.10;;;1.40;;
72273;SDS011;60208;48.692;8.948;2023-07-13T01:43:35;2.75;;;1.45;;
72273;SDS011;60208;48.692;8.948;2023-07-13T01:46:52;2.67;;;1.40;;
72273;SDS011;60208;48.692;8.948;2023-07-13T01:50:11;3.03;;;1.40;;
72273;SDS011;60208;48.692;8.948;2023-07-13T01:53:27;4.65;;;1.58;;
72273;SDS011;60208;48.692;8.948;2023-07-13T01:56:45;3.83;;;1.60;;
72273;SDS011;60208;48.692;8.948;2023-07-13T02:00:04;6.13;;;1.63;;
72273;SDS011;60208;48.692;8.948;2023-07-13T02:03:22;3.13;;;1.30;;
72273;SDS011;60208;48.692;8.948;2023-07-13T02:06:40;4.13;;;1.30;;
72273;SDS011;60208;48.692;8.948;2023-07-13T02:09:53;3.20;;;1.25;;
72273;SDS011;60208;48.692;8.948;2023-07-13T02:12:25;4.07;;;1.50;;
72273;SDS011;60208;48.692;8.948;2023-07-13T02:15:42;4.30;;;1.30;;
72273;SDS011;60208;48.692;8.948;2023-07-13T02:20:46;4.13;;;1.70;;
72273;SDS011;60208;48.692;8.948;2023-07-13T02:23:12;2.40;;;1.30;;
72273;SDS011;60208;48.692;8.948;2023-07-13T02:25:45;2.63;;;1.40;;
72273;SDS011;60208;48.692;8.948;2023-07-13T02:28:22;4.30;;;1.33;;
72273;SDS011;60208;48.692;8.948;2023-07-13T02:31:06;2.53;;;1.25;;
72273;SDS011;60208;48.692;8.948;2023-07-13T02:33:51;1.90;;;1.33;;
72273;SDS011;60208;48.692;8.948;2023-07-13T02:37:07;1.73;;;1.23;;
72273;SDS011;60208;48.692;8.948;2023-07-13T02:40:15;2.65;;;1.27;;
72273;SDS011;60208;48.692;8.948;2023-07-13T02:43:35;2.90;;;1.40;;
72273;SDS011;60208;48.692;8.948;2023-07-13T02:46:52;3.83;;;1.35;;
72273;SDS011;60208;48.692;8.948;2023-07-13T02:50:01;3.80;;;1.45;;
72273;SDS011;60208;48.692;8.948;2023-07-13T02:52:30;3.97;;;1.30;;
72273;SDS011;60208;48.692;8.948;2023-07-13T02:55:34;3.53;;;1.67;;
72273;SDS011;60208;48.692;8.948;2023-07-13T02:58:51;2.90;;;1.40;;
72273;SDS011;60208;48.692;8.948;2023-07-13T03:02:01;4.28;;;1.50;;
72273;SDS011;60208;48.692;8.948;2023-07-13T03:05:17;4.07;;;1.60;;
72273;SDS011;60208;48.692;8.948;2023-07-13T03:07:52;4.50;;;1.45;;
72273;SDS011;60208;48.692;8.948;2023-07-13T03:11:04;2.88;;;1.60;;
72273;SDS011;60208;48.692;8.948;2023-07-13T03:13:51;3.00;;;1.25;;
72273;SDS011;60208;48.692;8.948;2023-07-13T03:16:30;3.08;;;1.30;;
72273;SDS011;60208;48.692;8.948;2023-07-13T03:19:48;4.82;;;1.40;;
72273;SDS011;60208;48.692;8.948;2023-07-13T03:22:58;3.80;;;1.45;;
72273;SDS011;60208;48.692;8.948;2023-07-13T03:32:32;3.03;;;1.40;;
72273;SDS011;60208;48.692;8.948;2023-07-13T03:35:50;4.20;;;1.65;;
72273;SDS011;60208;48.692;8.948;2023-07-13T03:38:21;3.78;;;1.67;;
72273;SDS011;60208;48.692;8.948;2023-07-13T03:41:34;3.90;;;1.50;;
72273;SDS011;60208;48.692;8.948;2023-07-13T03:44:51;6.10;;;1.75;;
72273;SDS011;60208;48.692;8.948;2023-07-13T03:48:09;4.18;;;1.80;;
72273;SDS011;60208;48.692;8.948;2023-07-13T03:51:28;3.85;;;1.65;;
72273;SDS011;60208;48.692;8.948;2023-07-13T03:54:46;4.93;;;1.70;;
72273;SDS011;60208;48.692;8.948;2023-07-13T04:02:01;2.80;;;1.50;;
72273;SDS011;60208;48.692;8.948;2023-07-13T04:05:14;4.93;;;1.65;;
72273;SDS011;60208;48.692;8.948;2023-07-13T04:08:46;3.30;;;1.70;;
72273;SDS011;60208;48.692;8.948;2023-07-13T04:12:02;3.47;;;1.60;;
72273;SDS011;60208;48.692;8.948;2023-07-13T04:15:19;3.22;;;1.58;;
72273;SDS011;60208;48.692;8.948;2023-07-13T04:18:37;3.92;;;1.70;;
72273;SDS011;60208;48.692;8.948;2023-07-13T04:21:53;4.22;;;1.60;;
72273;SDS011;60208;48.692;8.948;2023-07-13T04:24:50;5.45;;;1.75;;
72273;SDS011;60208;48.692;8.948;2023-07-13T04:27:26;5.35;;;1.58;;
72273;SDS011;60208;48.692;8.948;2023-07-13T04:30:40;7.13;;;1.85;;
72273;SDS011;60208;48.692;8.948;2023-07-13T04:33:45;3.45;;;1.67;;
72273;SDS011;60208;48.692;8.948;2023-07-13T04:36:47;4.45;;;1.80;;
72273;SDS011;60208;48.692;8.948;2023-07-13T04:39:54;3.70;;;1.83;;
72273;SDS011;60208;48.692;8.948;2023-07-13T04:43:00;2.30;;;1.60;;
72273;SDS011;60208;48.692;8.948;2023-07-13T04:45:46;5.65;;;2.10;;
72273;SDS011;60208;48.692;8.948;2023-07-13T04:48:21;5.15;;;1.88;;
72273;SDS011;60208;48.692;8.948;2023-07-13T04:50:57;4.53;;;1.80;;
72273;SDS011;60208;48.692;8.948;2023-07-13T04:56:08;3.70;;;1.60;;
72273;SDS011;60208;48.692;8.948;2023-07-13T04:58:33;5.88;;;1.70;;
72273;SDS011;60208;48.692;8.948;2023-07-13T05:01:11;7.50;;;1.85;;
72273;SDS011;60208;48.692;8.948;2023-07-13T05:03:36;2.83;;;1.50;;
72273;SDS011;60208;48.692;8.948;2023-07-13T05:06:08;3.50;;;1.53;;
72273;SDS011;60208;48.692;8.948;2023-07-13T05:08:38;4.07;;;2.03;;
72273;SDS011;60208;48.692;8.948;2023-07-13T05:11:05;5.68;;;1.80;;
72273;SDS011;60208;48.692;8.948;2023-07-13T05:13:32;4.28;;;1.95;;
72273;SDS011;60208;48.692;8.948;2023-07-13T05:16:14;6.38;;;1.92;;
72273;SDS011;60208;48.692;8.948;2023-07-13T05:18:40;4.80;;;1.85;;
72273;SDS011;60208;48.692;8.948;2023-07-13T05:21:07;4.85;;;1.90;;
72273;SDS011;60208;48.692;8.948;2023-07-13T05:23:37;3.42;;;2.03;;
72273;SDS011;60208;48.692;8.948;2023-07-13T05:26:12;4.45;;;1.90;;
72273;SDS011;60208;48.692;8.948;2023-07-13T05:28:41;3.90;;;2.00;;
72273;SDS011;60208;48.692;8.948;2023-07-13T05:31:25;3.88;;;1.85;;
72273;SDS011;60208;48.692;8.948;2023-07-13T05:33:53;6.38;;;1.80;;
72273;SDS011;60208;48.692;8.948;2023-07-13T05:36:44;4.45;;;1.73;;
72273;SDS011;60208;48.692;8.948;2023-07-13T05:39:41;2.78;;;1.77;;
72273;SDS011;60208;48.692;8.948;2023-07-13T05:42:59;3.40;;;1.55;;
72273;SDS011;60208;48.692;8.948;2023-07-13T05:45:26;4.18;;;1.77;;
72273;SDS011;60208;48.692;8.948;2023-07-13T05:47:52;4.55;;;1.98;;
72273;SDS011;60208;48.692;8.948;2023-07-13T05:50:19;3.50;;;1.70;;
72273;SDS011;60208;48.692;8.948;2023-07-13T05:52:44;5.60;;;1.70;;
72273;SDS011;60208;48.692;8.948;2023-07-13T05:55:10;7.40;;;1.98;;
72273;SDS011;60208;48.692;8.948;2023-07-13T05:57:36;3.38;;;1.50;;
72273;SDS011;60208;48.692;8.948;2023-07-13T06:00:01;5.30;;;2.20;;
72273;SDS011;60208;48.692;8.948;2023-07-13T06:02:30;10.85;;;2.28;;
72273;SDS011;60208;48.692;8.948;2023-07-13T06:04:56;7.10;;;2.13;;
72273;SDS011;60208;48.692;8.948;2023-07-13T06:07:23;10.75;;;2.20;;
72273;SDS011;60208;48.692;8.948;2023-07-13T06:09:48;14.32;;;2.20;;
72273;SDS011;60208;48.692;8.948;2023-07-13T06:12:14;10.07;;;2.28;;
72273;SDS011;60208;48.692;8.948;2023-07-13T06:14:42;12.20;;;2.10;;
72273;SDS011;60208;48.692;8.948;2023-07-13T06:17:10;7.32;;;2.10;;
72273;SDS011;60208;48.692;8.948;2023-07-13T06:19:48;21.70;;;2.30;;
72273;SDS011;60208;48.692;8.948;2023-07-13T06:22:25;23.77;;;2.83;;
72273;SDS011;60208;48.692;8.948;2023-07-13T06:24:50;11.30;;;2.03;;
72273;SDS011;60208;48.692;8.948;2023-07-13T06:27:44;6.97;;;1.50;;
72273;SDS011;60208;48.692;8.948;2023-07-13T06:30:19;9.02;;;1.58;;
72273;SDS011;60208;48.692;8.948;2023-07-13T06:32:54;3.10;;;1.50;;
72273;SDS011;60208;48.692;8.948;2023-07-13T06:35:31;7.88;;;1.70;;
72273;SDS011;60208;48.692;8.948;2023-07-13T06:38:06;5.82;;;1.75;;
72273;SDS011;60208;48.692;8.948;2023-07-13T06:40:35;9.63;;;1.65;;
72273;SDS011;60208;48.692;8.948;2023-07-13T06:43:28;7.22;;;1.38;;
72273;SDS011;60208;48.692;8.948;2023-07-13T06:46:35;8.45;;;1.80;;
72273;SDS011;60208;48.692;8.948;2023-07-13T06:49:45;5.60;;;1.75;;
72273;SDS011;60208;48.692;8.948;2023-07-13T06:52:25;8.98;;;1.65;;
72273;SDS011;60208;48.692;8.948;2023-07-13T06:55:25;5.00;;;1.38;;
72273;SDS011;60208;48.692;8.948;2023-07-13T06:58:14;3.60;;;1.60;;
72273;SDS011;60208;48.692;8.948;2023-07-13T07:00:50;2.85;;;1.40;;
72273;SDS011;60208;48.692;8.948;2023-07-13T07:03:19;3.78;;;1.42;;
72273;SDS011;60208;48.692;8.948;2023-07-13T07:05:52;2.70;;;1.30;;
72273;SDS011;60208;48.692;8.948;2023-07-13T07:08:19;2.35;;;1.40;;
72273;SDS011;60208;48.692;8.948;2023-07-13T07:10:44;4.10;;;1.42;;
72273;SDS011;60208;48.692;8.948;2023-07-13T07:13:10;2.50;;;1.20;;
72273;SDS011;60208;48.692;8.948;2023-07-13T07:15:53;2.70;;;1.15;;
72273;SDS011;60208;48.692;8.948;2023-07-13T07:18:29;4.50;;;1.20;;
72273;SDS011;60208;48.692;8.948;2023-07-13T07:21:10;2.83;;;1.30;;
72273;SDS011;60208;48.692;8.948;2023-07-13T07:24:16;4.50;;;1.50;;
72273;SDS011;60208;48.692;8.948;2023-07-13T07:27:06;2.53;;;1.40;;
72273;SDS011;60208;48.692;8.948;2023-07-13T07:30:15;5.00;;;1.50;;
72273;SDS011;60208;48.692;8.948;2023-07-13T07:33:33;4.65;;;1.35;;
72273;SDS011;60208;48.692;8.948;2023-07-13T07:36:49;5.50;;;1.40;;
72273;SDS011;60208;48.692;8.948;2023-07-13T07:40:02;4.10;;;1.40;;
72273;SDS011;60208;48.692;8.948;2023-07-13T07:42:40;7.50;;;1.40;;
72273;SDS011;60208;48.692;8.948;2023-07-13T07:45:18;4.43;;;1.30;;
72273;SDS011;60208;48.692;8.948;2023-07-13T07:47:44;3.08;;;1.80;;
72273;SDS011;60208;48.692;8.948;2023-07-13T07:50:16;5.00;;;1.23;;
72273;SDS011;60208;48.692;8.948;2023-07-13T07:52:48;2.05;;;1.17;;
72273;SDS011;60208;48.692;8.948;2023-07-13T07:55:56;8.35;;;1.70;;
72273;SDS011;60208;48.692;8.948;2023-07-13T07:58:22;3.28;;;1.30;;
72273;SDS011;60208;48.692;8.948;2023-07-13T08:00:47;4.00;;;1.40;;
72273;SDS011;60208;48.692;8.948;2023-07-13T08:03:13;3.40;;;1.00;;
72273;SDS011;60208;48.692;8.948;2023-07-13T08:05:38;2.72;;;1.05;;
72273;SDS011;60208;48.692;8.948;2023-07-13T08:08:04;3.10;;;1.35;;
72273;SDS011;60208;48.692;8.948;2023-07-13T08:10:49;3.33;;;1.05;;
72273;SDS011;60208;48.692;8.948;2023-07-13T08:14:02;3.30;;;1.30;;
72273;SDS011;60208;48.692;8.948;2023-07-13T08:16:31;5.45;;;1.17;;
72273;SDS011;60208;48.692;8.948;2023-07-13T08:18:57;2.42;;;1.00;;
72273;SDS011;60208;48.692;8.948;2023-07-13T08:21:23;5.75;;;1.38;;
72273;SDS011;60208;48.692;8.948;2023-07-13T08:23:48;4.68;;;1.38;;
72273;SDS011;60208;48.692;8.948;2023-07-13T08:26:14;3.63;;;1.38;;
72273;SDS011;60208;48.692;8.948;2023-07-13T08:28:40;3.58;;;1.20;;
72273;SDS011;60208;48.692;8.948;2023-07-13T08:31:06;2.45;;;1.25;;
72273;SDS011;60208;48.692;8.948;2023-07-13T08:33:33;4.85;;;1.30;;
72273;SDS011;60208;48.692;8.948;2023-07-13T08:36:00;5.28;;;1.08;;
72273;SDS011;60208;48.692;8.948;2023-07-13T08:38:25;4.95;;;1.30;;
72273;SDS011;60208;48.692;8.948;2023-07-13T08:40:52;3.08;;;1.00;;
72273;SDS011;60208;48.692;8.948;2023-07-13T08:43:20;4.22;;;1.20;;
72273;SDS011;60208;48.692;8.948;2023-07-13T08:46:13;5.97;;;1.30;;
72273;SDS011;60208;48.692;8.948;2023-07-13T08:48:39;3.05;;;1.25;;
72273;SDS011;60208;48.692;8.948;2023-07-13T08:54:00;4.40;;;1.30;;
72273;SDS011;60208;48.692;8.948;2023-07-13T08:56:28;1.90;;;1.10;;
72273;SDS011;60208;48.692;8.948;2023-07-13T08:58:56;2.13;;;1.10;;
72273;SDS011;60208;48.692;8.948;2023-07-13T09:06:59;1.55;;;0.95;;
72273;SDS011;60208;48.692;8.948;2023-07-13T09:17:54;4.03;;;1.13;;
72273;SDS011;60208;48.692;8.948;2023-07-13T09:20:28;2.85;;;1.20;;
72273;SDS011;60208;48.692;8.948;2023-07-13T09:23:20;4.95;;;1.20;;
72273;SDS011;60208;48.692;8.948;2023-07-13T09:25:48;11.20;;;1.60;;
72273;SDS011;60208;48.692;8.948;2023-07-13T09:28:27;3.53;;;1.03;;
72273;SDS011;60208;48.692;8.948;2023-07-13T09:33:25;9.27;;;1.60;;
72273;SDS011;60208;48.692;8.948;2023-07-13T09:35:54;13.35;;;1.90;;
72273;SDS011;60208;48.692;8.948;2023-07-13T09:38:21;5.25;;;1.10;;
72273;SDS011;60208;48.692;8.948;2023-07-13T09:43:19;3.65;;;1.27;;
72273;SDS011;60208;48.692;8.948;2023-07-13T09:45:47;4.00;;;1.08;;
72273;SDS011;60208;48.692;8.948;2023-07-13T09:48:13;6.18;;;1.13;;
72273;SDS011;60208;48.692;8.948;2023-07-13T09:50:40;3.05;;;1.27;;
72273;SDS011;60208;48.692;8.948;2023-07-13T09:53:17;4.38;;;1.48;;
72273;SDS011;60208;48.692;8.948;2023-07-13T09:55:44;4.53;;;1.27;;
72273;SDS011;60208;48.692;8.948;2023-07-13T10:00:53;4.40;;;1.13;;
72273;SDS011;60208;48.692;8.948;2023-07-13T10:03:28;5.65;;;1.20;;
72273;SDS011;60208;48.692;8.948;2023-07-13T10:05:58;4.10;;;1.30;;
72273;SDS011;60208;48.692;8.948;2023-07-13T10:08:29;3.35;;;1.23;;
72273;SDS011;60208;48.692;8.948;2023-07-13T10:11:08;2.00;;;1.10;;
72273;SDS011;60208;48.692;8.948;2023-07-13T10:13:37;2.15;;;1.10;;
72273;SDS011;60208;48.692;8.948;2023-07-13T10:16:07;2.83;;;1.10;;
72273;SDS011;60208;48.692;8.948;2023-07-13T10:18:40;2.13;;;1.02;;
72273;SDS011;60208;48.692;8.948;2023-07-13T10:21:13;4.47;;;1.10;;
72273;SDS011;60208;48.692;8.948;2023-07-13T10:23:52;4.32;;;1.05;;
72273;SDS011;60208;48.692;8.948;2023-07-13T10:26:27;6.10;;;1.30;;
72273;SDS011;60208;48.692;8.948;2023-07-13T10:28:56;3.67;;;1.15;;
72273;SDS011;60208;48.692;8.948;2023-07-13T10:31:25;6.03;;;1.10;;
72273;SDS011;60208;48.692;8.948;2023-07-13T10:33:50;5.82;;;1.10;;
72273;SDS011;60208;48.692;8.948;2023-07-13T10:38:52;6.95;;;1.30;;
72273;SDS011;60208;48.692;8.948;2023-07-13T10:41:19;7.63;;;1.20;;
72273;SDS011;60208;48.692;8.948;2023-07-13T10:43:47;3.20;;;0.90;;
72273;SDS011;60208;48.692;8.948;2023-07-13T10:46:18;5.47;;;0.90;;
72273;SDS011;60208;48.692;8.948;2023-07-13T10:48:46;3.47;;;1.05;;
72273;SDS011;60208;48.692;8.948;2023-07-13T10:51:15;3.95;;;1.00;;
72273;SDS011;60208;48.692;8.948;2023-07-13T10:53:42;2.53;;;1.10;;
72273;SDS011;60208;48.692;8.948;2023-07-13T10:58:39;2.63;;;1.13;;
72273;SDS011;60208;48.692;8.948;2023-07-13T11:03:33;4.30;;;1.10;;
72273;SDS011;60208;48.692;8.948;2023-07-13T11:06:42;2.58;;;1.02;;
72273;SDS011;60208;48.692;8.948;2023-07-13T11:08:59;2.08;;;1.20;;
72273;SDS011;60208;48.692;8.948;2023-07-13T11:12:02;2.72;;;1.00;;
72273;SDS011;60208;48.692;8.948;2023-07-13T11:14:43;2.20;;;1.10;;
72273;SDS011;60208;48.692;8.948;2023-07-13T11:22:41;1.38;;;0.80;;
72273;SDS011;60208;48.692;8.948;2023-07-13T11:25:41;3.67;;;1.00;;
72273;SDS011;60208;48.692;8.948;2023-07-13T11:30:38;6.20;;;1.05;;
72273;SDS011;60208;48.692;8.948;2023-07-13T11:36:05;3.65;;;0.98;;
72273;SDS011;60208;48.692;8.948;2023-07-13T11:38:37;3.47;;;1.27;;
72273;SDS011;60208;48.692;8.948;2023-07-13T11:41:16;3.83;;;1.10;;
72273;SDS011;60208;48.692;8.948;2023-07-13T11:43:44;2.42;;;1.10;;
72273;SDS011;60208;48.692;8.948;2023-07-13T11:46:22;9.90;;;1.48;;
72273;SDS011;60208;48.692;8.948;2023-07-13T11:48:49;5.38;;;1.10;;
72273;SDS011;60208;48.692;8.948;2023-07-13T11:53:46;9.65;;;1.45;;
72273;SDS011;60208;48.692;8.948;2023-07-13T11:56:13;8.15;;;1.60;;
72273;SDS011;60208;48.692;8.948;2023-07-13T11:58:39;5.55;;;1.20;;
72273;SDS011;60208;48.692;8.948;2023-07-13T12:01:05;5.88;;;1.00;;
72273;SDS011;60208;48.692;8.948;2023-07-13T12:03:30;4.18;;;1.30;;
72273;SDS011;60208;48.692;8.948;2023-07-13T12:05:58;6.35;;;1.20;;
72273;SDS011;60208;48.692;8.948;2023-07-13T12:08:47;7.40;;;1.38;;
72273;SDS011;60208;48.692;8.948;2023-07-13T12:11:16;3.40;;;1.23;;
72273;SDS011;60208;48.692;8.948;2023-07-13T12:13:43;3.55;;;1.33;;
72273;SDS011;60208;48.692;8.948;2023-07-13T12:16:26;3.85;;;1.45;;
72273;SDS011;60208;48.692;8.948;2023-07-13T12:18:55;5.57;;;1.40;;
72273;SDS011;60208;48.692;8.948;2023-07-13T12:21:22;5.03;;;1.30;;
72273;SDS011;60208;48.692;8.948;2023-07-13T12:23:53;5.00;;;1.23;;
72273;SDS011;60208;48.692;8.948;2023-07-13T12:26:18;12.10;;;1.60;;
72273;SDS011;60208;48.692;8.948;2023-07-13T12:33:56;7.93;;;1.58;;
72273;SDS011;60208;48.692;8.948;2023-07-13T12:36:32;2.45;;;1.02;;
72273;SDS011;60208;48.692;8.948;2023-07-13T12:39:00;2.92;;;1.20;;
72273;SDS011;60208;48.692;8.948;2023-07-13T12:41:31;7.43;;;1.33;;
72273;SDS011;60208;48.692;8.948;2023-07-13T12:43:57;2.35;;;1.25;;
72273;SDS011;60208;48.692;8.948;2023-07-13T12:46:24;3.60;;;1.10;;
72273;SDS011;60208;48.692;8.948;2023-07-13T12:48:53;3.97;;;1.05;;
72273;SDS011;60208;48.692;8.948;2023-07-13T12:51:24;3.10;;;1.30;;
72273;SDS011;60208;48.692;8.948;2023-07-13T12:53:56;1.70;;;1.17;;
72273;SDS011;60208;48.692;8.948;2023-07-13T12:56:25;4.28;;;1.17;;
72273;SDS011;60208;48.692;8.948;2023-07-13T12:58:56;3.97;;;1.20;;
72273;SDS011;60208;48.692;8.948;2023-07-13T13:01:25;7.80;;;1.73;;
72273;SDS011;60208;48.692;8.948;2023-07-13T13:03:52;4.32;;;1.30;;
72273;SDS011;60208;48.692;8.948;2023-07-13T13:08:51;3.33;;;1.13;;
72273;SDS011;60208;48.692;8.948;2023-07-13T13:11:18;2.95;;;1.08;;
72273;SDS011;60208;48.692;8.948;2023-07-13T13:13:45;1.10;;;0.90;;
72273;SDS011;60208;48.692;8.948;2023-07-13T13:16:13;4.30;;;1.10;;
72273;SDS011;60208;48.692;8.948;2023-07-13T13:18:41;2.28;;;1.00;;
72273;SDS011;60208;48.692;8.948;2023-07-13T13:21:08;4.30;;;1.20;;
72273;SDS011;60208;48.692;8.948;2023-07-13T13:23:34;5.15;;;1.10;;
72273;SDS011;60208;48.692;8.948;2023-07-13T13:26:00;4.32;;;1.33;;
72273;SDS011;60208;48.692;8.948;2023-07-13T13:28:26;1.65;;;1.00;;
72273;SDS011;60208;48.692;8.948;2023-07-13T13:30:52;2.75;;;1.27;;
72273;SDS011;60208;48.692;8.948;2023-07-13T13:33:18;2.97;;;1.00;;
72273;SDS011;60208;48.692;8.948;2023-07-13T13:35:45;2.92;;;1.00;;
72273;SDS011;60208;48.692;8.948;2023-07-13T13:38:12;3.00;;;1.40;;
72273;SDS011;60208;48.692;8.948;2023-07-13T13:40:41;3.35;;;1.15;;
72273;SDS011;60208;48.692;8.948;2023-07-13T13:43:14;2.45;;;1.00;;
72273;SDS011;60208;48.692;8.948;2023-07-13T13:45:45;4.07;;;1.00;;
72273;SDS011;60208;48.692;8.948;2023-07-13T13:48:18;1.65;;;1.05;;
72273;SDS011;60208;48.692;8.948;2023-07-13T13:50:45;2.33;;;1.00;;
72273;SDS011;60208;48.692;8.948;2023-07-13T13:53:11;3.58;;;1.20;;
72273;SDS011;60208;48.692;8.948;2023-07-13T13:55:38;2.53;;;1.15;;
72273;SDS011;60208;48.692;8.948;2023-07-13T13:58:03;2.53;;;1.15;;
72273;SDS011;60208;48.692;8.948;2023-07-13T14:00:29;2.28;;;0.98;;
72273;SDS011;60208;48.692;8.948;2023-07-13T14:02:55;2.28;;;1.02;;
72273;SDS011;60208;48.692;8.948;2023-07-13T14:05:23;3.40;;;0.93;;
72273;SDS011;60208;48.692;8.948;2023-07-13T14:07:51;2.30;;;1.15;;
72273;SDS011;60208;48.692;8.948;2023-07-13T14:10:17;4.13;;;1.15;;
72273;SDS011;60208;48.692;8.948;2023-07-13T14:12:46;3.00;;;1.70;;
72273;SDS011;60208;48.692;8.948;2023-07-13T14:15:17;4.53;;;1.30;;
72273;SDS011;60208;48.692;8.948;2023-07-13T14:17:46;2.00;;;0.95;;
72273;SDS011;60208;48.692;8.948;2023-07-13T14:20:14;7.65;;;1.60;;
72273;SDS011;60208;48.692;8.948;2023-07-13T14:22:41;5.28;;;1.20;;
72273;SDS011;60208;48.692;8.948;2023-07-13T14:25:10;18.13;;;1.60;;
72273;SDS011;60208;48.692;8.948;2023-07-13T14:27:36;10.88;;;1.40;;
72273;SDS011;60208;48.692;8.948;2023-07-13T14:30:02;8.75;;;1.20;;
72273;SDS011;60208;48.692;8.948;2023-07-13T14:32:28;3.33;;;1.17;;
72273;SDS011;60208;48.692;8.948;2023-07-13T14:34:53;5.70;;;1.00;;
72273;SDS011;60208;48.692;8.948;2023-07-13T14:37:18;3.05;;;1.35;;
72273;SDS011;60208;48.692;8.948;2023-07-13T14:39:44;2.55;;;0.90;;
72273;SDS011;60208;48.692;8.948;2023-07-13T14:42:10;2.67;;;1.02;;
72273;SDS011;60208;48.692;8.948;2023-07-13T14:44:37;4.78;;;1.10;;
72273;SDS011;60208;48.692;8.948;2023-07-13T14:47:03;1.70;;;1.10;;
72273;SDS011;60208;48.692;8.948;2023-07-13T14:49:34;2.65;;;0.93;;
72273;SDS011;60208;48.692;8.948;2023-07-13T14:52:03;1.75;;;0.98;;
72273;SDS011;60208;48.692;8.948;2023-07-13T14:54:39;5.78;;;1.05;;
72273;SDS011;60208;48.692;8.948;2023-07-13T14:57:13;3.90;;;1.20;;
72273;SDS011;60208;48.692;8.948;2023-07-13T14:59:40;1.90;;;1.20;;
72273;SDS011;60208;48.692;8.948;2023-07-13T15:02:13;3.55;;;1.15;;
72273;SDS011;60208;48.692;8.948;2023-07-13T15:04:39;2.35;;;1.00;;
72273;SDS011;60208;48.692;8.948;2023-07-13T15:07:05;7.88;;;1.95;;
72273;SDS011;60208;48.692;8.948;2023-07-13T15:09:32;2.95;;;1.05;;
72273;SDS011;60208;48.692;8.948;2023-07-13T15:11:58;5.07;;;1.30;;
72273;SDS011;60208;48.692;8.948;2023-07-13T15:14:24;2.45;;;1.00;;
72273;SDS011;60208;48.692;8.948;2023-07-13T15:16:51;2.95;;;0.90;;
72273;SDS011;60208;48.692;8.948;2023-07-13T15:19:17;2.70;;;1.00;;
72273;SDS011;60208;48.692;8.948;2023-07-13T15:21:44;4.47;;;1.27;;
72273;SDS011;60208;48.692;8.948;2023-07-13T15:24:10;2.03;;;1.10;;
72273;SDS011;60208;48.692;8.948;2023-07-13T15:26:35;3.90;;;1.20;;
72273;SDS011;60208;48.692;8.948;2023-07-13T15:29:03;3.42;;;1.13;;
72273;SDS011;60208;48.692;8.948;2023-07-13T15:31:31;5.13;;;1.23;;
72273;SDS011;60208;48.692;8.948;2023-07-13T15:33:58;3.70;;;1.20;;
72273;SDS011;60208;48.692;8.948;2023-07-13T15:36:25;4.00;;;1.13;;
72273;SDS011;60208;48.692;8.948;2023-07-13T15:38:51;3.45;;;1.00;;
72273;SDS011;60208;48.692;8.948;2023-07-13T15:41:26;3.85;;;1.25;;
72273;SDS011;60208;48.692;8.948;2023-07-13T15:43:53;2.17;;;1.02;;
72273;SDS011;60208;48.692;8.948;2023-07-13T15:46:26;1.95;;;0.95;;
72273;SDS011;60208;48.692;8.948;2023-07-13T15:48:53;4.03;;;1.25;;
72273;SDS011;60208;48.692;8.948;2023-07-13T15:53:52;5.00;;;1.20;;
72273;SDS011;60208;48.692;8.948;2023-07-13T15:56:21;3.13;;;1.20;;
72273;SDS011;60208;48.692;8.948;2023-07-13T15:58:48;2.30;;;1.10;;
72273;SDS011;60208;48.692;8.948;2023-07-13T16:01:15;1.25;;;0.90;;
72273;SDS011;60208;48.692;8.948;2023-07-13T16:03:40;4.93;;;1.10;;
72273;SDS011;60208;48.692;8.948;2023-07-13T16:06:41;2.83;;;1.00;;
72273;SDS011;60208;48.692;8.948;2023-07-13T16:09:01;3.03;;;1.08;;
72273;SDS011;60208;48.692;8.948;2023-07-13T16:11:29;2.47;;;1.10;;
72273;SDS011;60208;48.692;8.948;2023-07-13T16:14:01;3.85;;;1.55;;
72273;SDS011;60208;48.692;8.948;2023-07-13T16:16:30;2.53;;;1.30;;
72273;SDS011;60208;48.692;8.948;2023-07-13T16:19:04;3.00;;;1.20;;
72273;SDS011;60208;48.692;8.948;2023-07-13T16:21:46;3.33;;;1.10;;
72273;SDS011;60208;48.692;8.948;2023-07-13T16:27:35;4.20;;;1.27;;
72273;SDS011;60208;48.692;8.948;2023-07-13T16:30:00;3.63;;;1.17;;
72273;SDS011;60208;48.692;8.948;2023-07-13T16:32:43;2.92;;;1.20;;
72273;SDS011;60208;48.692;8.948;2023-07-13T16:35:08;3.15;;;1.20;;
72273;SDS011;60208;48.692;8.948;2023-07-13T16:37:34;3.13;;;1.00;;
72273;SDS011;60208;48.692;8.948;2023-07-13T16:40:00;2.33;;;1.08;;
72273;SDS011;60208;48.692;8.948;2023-07-13T16:42:26;2.25;;;1.10;;
72273;SDS011;60208;48.692;8.948;2023-07-13T16:44:52;3.92;;;1.20;;
72273;SDS011;60208;48.692;8.948;2023-07-13T16:47:21;5.03;;;1.17;;
72273;SDS011;60208;48.692;8.948;2023-07-13T16:49:48;2.80;;;1.10;;
72273;SDS011;60208;48.692;8.948;2023-07-13T16:52:16;3.58;;;1.10;;
72273;SDS011;60208;48.692;8.948;2023-07-13T16:54:46;2.88;;;1.15;;
72273;SDS011;60208;48.692;8.948;2023-07-13T16:57:20;3.78;;;1.20;;
72273;SDS011;60208;48.692;8.948;2023-07-13T16:59:50;2.63;;;1.08;;
72273;SDS011;60208;48.692;8.948;2023-07-13T17:02:36;7.40;;;1.15;;
72273;SDS011;60208;48.692;8.948;2023-07-13T17:05:04;2.58;;;1.50;;
72273;SDS011;60208;48.692;8.948;2023-07-13T17:07:30;5.10;;;1.30;;
72273;SDS011;60208;48.692;8.948;2023-07-13T17:09:56;4.80;;;1.42;;
72273;SDS011;60208;48.692;8.948;2023-07-13T17:12:22;3.72;;;1.33;;
72273;SDS011;60208;48.692;8.948;2023-07-13T17:14:48;2.53;;;1.30;;
72273;SDS011;60208;48.692;8.948;2023-07-13T17:17:14;4.70;;;1.20;;